sensor_id;sensor_type;location;lat;lon;timestamp;temperature;humidity
17128;DHT22;8679;50.842;4.322;2023-03-14T00:02:20;11.60;84.70
17128;DHT22;8679;50.842;4.322;2023-03-14T00:04:46;11.50;96.40
17128;DHT22;8679;50.842;4.322;2023-03-14T00:07:12;11.50;99.90
17128;DHT22;8679;50.842;4.322;2023-03-14T00:09:38;11.50;76.80
17128;DHT22;8679;50.842;4.322;2023-03-14T00:12:04;11.40;93.80
17128;DHT22;8679;50.842;4.322;2023-03-14T00:14:31;11.40;99.90
17128;DHT22;8679;50.842;4.322;2023-03-14T00:16:57;11.30;99.90
17128;DHT22;8679;50.842;4.322;2023-03-14T00:19:22;11.30;99.90
17128;DHT22;8679;50.842;4.322;2023-03-14T00:21:48;11.30;99.90
17128;DHT22;8679;50.842;4.322;2023-03-14T00:24:13;11.30;99.90
17128;DHT22;8679;50.842;4.322;2023-03-14T00:26:39;11.30;99.90
17128;DHT22;8679;50.842;4.322;2023-03-14T00:29:05;11.20;99.90
17128;DHT22;8679;50.842;4.322;2023-03-14T00:31:30;11.20;99.90
17128;DHT22;8679;50.842;4.322;2023-03-14T00:33:56;11.20;99.90
17128;DHT22;8679;50.842;4.322;2023-03-14T00:36:22;11.20;99.90
17128;DHT22;8679;50.842;4.322;2023-03-14T00:38:51;11.20;99.90
17128;DHT22;8679;50.842;4.322;2023-03-14T00:41:19;11.20;99.90
17128;DHT22;8679;50.842;4.322;2023-03-14T00:43:45;11.10;99.90
17128;DHT22;8679;50.842;4.322;2023-03-14T00:46:11;11.10;99.90
17128;DHT22;8679;50.842;4.322;2023-03-14T00:48:37;11.10;99.90
17128;DHT22;8679;50.842;4.322;2023-03-14T00:51:04;11.20;99.90
17128;DHT22;8679;50.842;4.322;2023-03-14T00:53:30;11.20;99.90
17128;DHT22;8679;50.842;4.322;2023-03-14T00:56:01;11.20;99.90
17128;DHT22;8679;50.842;4.322;2023-03-14T00:58:27;11.10;99.90
17128;DHT22;8679;50.842;4.322;2023-03-14T01:00:53;11.10;99.90
17128;DHT22;8679;50.842;4.322;2023-03-14T01:03:18;11.10;99.90
17128;DHT22;8679;50.842;4.322;2023-03-14T01:05:44;11.10;99.90
17128;DHT22;8679;50.842;4.322;2023-03-14T01:08:10;11.10;99.90
17128;DHT22;8679;50.842;4.322;2023-03-14T01:10:41;11.10;99.90
17128;DHT22;8679;50.842;4.322;2023-03-14T01:13:07;11.10;99.90
17128;DHT22;8679;50.842;4.322;2023-03-14T01:15:34;11.10;99.90
17128;DHT22;8679;50.842;4.322;2023-03-14T01:18:00;11.10;99.90
17128;DHT22;8679;50.842;4.322;2023-03-14T01:20:26;11.10;99.90
17128;DHT22;8679;50.842;4.322;2023-03-14T01:22:51;11.10;99.90
17128;DHT22;8679;50.842;4.322;2023-03-14T01:25:18;11.10;99.90
17128;DHT22;8679;50.842;4.322;2023-03-14T01:27:44;11.10;99.90
17128;DHT22;8679;50.842;4.322;2023-03-14T01:30:11;11.10;99.90
17128;DHT22;8679;50.842;4.322;2023-03-14T01:32:37;11.10;99.90
17128;DHT22;8679;50.842;4.322;2023-03-14T01:35:03;11.00;99.90
17128;DHT22;8679;50.842;4.322;2023-03-14T01:37:29;11.00;99.90
17128;DHT22;8679;50.842;4.322;2023-03-14T01:39:54;11.00;99.90
17128;DHT22;8679;50.842;4.322;2023-03-14T01:42:20;10.90;99.90
17128;DHT22;8679;50.842;4.322;2023-03-14T01:47:12;10.80;99.90
17128;DHT22;8679;50.842;4.322;2023-03-14T01:49:38;10.80;99.90
17128;DHT22;8679;50.842;4.322;2023-03-14T01:52:12;10.80;99.90
17128;DHT22;8679;50.842;4.322;2023-03-14T01:54:44;10.80;99.90
17128;DHT22;8679;50.842;4.322;2023-03-14T01:57:19;10.80;99.90
17128;DHT22;8679;50.842;4.322;2023-03-14T01:59:51;10.70;99.90
17128;DHT22;8679;50.842;4.322;2023-03-14T02:02:18;10.70;99.90
17128;DHT22;8679;50.842;4.322;2023-03-14T02:04:44;10.60;99.90
17128;DHT22;8679;50.842;4.322;2023-03-14T02:07:18;10.50;99.90
17128;DHT22;8679;50.842;4.322;2023-03-14T02:09:45;10.40;99.90
17128;DHT22;8679;50.842;4.322;2023-03-14T02:12:14;10.30;99.90
17128;DHT22;8679;50.842;4.322;2023-03-14T02:14:40;10.20;99.90
17128;DHT22;8679;50.842;4.322;2023-03-14T02:17:08;10.10;99.90
17128;DHT22;8679;50.842;4.322;2023-03-14T02:20:14;10.10;99.90
17128;DHT22;8679;50.842;4.322;2023-03-14T02:22:45;10.00;99.90
17128;DHT22;8679;50.842;4.322;2023-03-14T02:25:37;9.90;99.90
17128;DHT22;8679;50.842;4.322;2023-03-14T02:28:05;9.90;99.90
17128;DHT22;8679;50.842;4.322;2023-03-14T02:30:33;9.80;99.90
17128;DHT22;8679;50.842;4.322;2023-03-14T02:33:08;9.80;99.90
17128;DHT22;8679;50.842;4.322;2023-03-14T02:35:39;9.80;99.90
17128;DHT22;8679;50.842;4.322;2023-03-14T02:38:31;9.80;99.90
17128;DHT22;8679;50.842;4.322;2023-03-14T02:40:59;9.80;99.90
17128;DHT22;8679;50.842;4.322;2023-03-14T02:43:24;9.80;99.90
17128;DHT22;8679;50.842;4.322;2023-03-14T02:45:51;9.80;99.90
17128;DHT22;8679;50.842;4.322;2023-03-14T02:48:29;9.80;99.90
17128;DHT22;8679;50.842;4.322;2023-03-14T02:50:57;9.80;99.90
17128;DHT22;8679;50.842;4.322;2023-03-14T02:53:33;9.80;99.90
17128;DHT22;8679;50.842;4.322;2023-03-14T02:56:00;9.80;99.90
17128;DHT22;8679;50.842;4.322;2023-03-14T02:58:26;9.80;99.90
17128;DHT22;8679;50.842;4.322;2023-03-14T03:00:52;9.80;99.90
17128;DHT22;8679;50.842;4.322;2023-03-14T03:03:18;9.90;99.90
17128;DHT22;8679;50.842;4.322;2023-03-14T03:05:51;9.90;99.90
17128;DHT22;8679;50.842;4.322;2023-03-14T03:08:21;10.00;99.90
17128;DHT22;8679;50.842;4.322;2023-03-14T03:10:47;10.00;99.90
17128;DHT22;8679;50.842;4.322;2023-03-14T03:13:14;10.00;99.90
17128;DHT22;8679;50.842;4.322;2023-03-14T03:15:39;10.10;99.90
17128;DHT22;8679;50.842;4.322;2023-03-14T03:18:06;10.10;99.90
17128;DHT22;8679;50.842;4.322;2023-03-14T03:20:32;10.10;99.90
17128;DHT22;8679;50.842;4.322;2023-03-14T03:22:59;10.20;99.90
17128;DHT22;8679;50.842;4.322;2023-03-14T03:25:25;10.20;99.90
17128;DHT22;8679;50.842;4.322;2023-03-14T03:27:51;10.20;99.90
17128;DHT22;8679;50.842;4.322;2023-03-14T03:30:17;10.20;99.90
17128;DHT22;8679;50.842;4.322;2023-03-14T03:32:43;10.20;99.90
17128;DHT22;8679;50.842;4.322;2023-03-14T03:35:09;10.30;99.90
17128;DHT22;8679;50.842;4.322;2023-03-14T03:37:34;10.30;99.90
17128;DHT22;8679;50.842;4.322;2023-03-14T03:40:00;10.30;99.90
17128;DHT22;8679;50.842;4.322;2023-03-14T03:42:29;10.20;99.90
17128;DHT22;8679;50.842;4.322;2023-03-14T03:44:55;10.30;99.90
17128;DHT22;8679;50.842;4.322;2023-03-14T03:47:20;10.30;99.90
17128;DHT22;8679;50.842;4.322;2023-03-14T03:49:46;10.30;99.90
17128;DHT22;8679;50.842;4.322;2023-03-14T03:52:12;10.30;99.90
17128;DHT22;8679;50.842;4.322;2023-03-14T03:54:37;10.30;99.90
17128;DHT22;8679;50.842;4.322;2023-03-14T03:57:03;10.20;99.90
17128;DHT22;8679;50.842;4.322;2023-03-14T03:59:29;10.30;99.90
17128;DHT22;8679;50.842;4.322;2023-03-14T04:01:54;10.20;99.90
17128;DHT22;8679;50.842;4.322;2023-03-14T04:04:20;10.20;99.90
17128;DHT22;8679;50.842;4.322;2023-03-14T04:06:46;10.30;99.90
17128;DHT22;8679;50.842;4.322;2023-03-14T04:09:11;10.30;99.90
17128;DHT22;8679;50.842;4.322;2023-03-14T04:11:37;10.30;99.90
17128;DHT22;8679;50.842;4.322;2023-03-14T04:14:04;10.30;99.90
17128;DHT22;8679;50.842;4.322;2023-03-14T04:16:30;10.30;99.90
17128;DHT22;8679;50.842;4.322;2023-03-14T04:18:59;10.30;99.90
17128;DHT22;8679;50.842;4.322;2023-03-14T04:21:25;10.40;99.90
17128;DHT22;8679;50.842;4.322;2023-03-14T04:23:50;10.30;99.90
17128;DHT22;8679;50.842;4.322;2023-03-14T04:26:16;10.30;99.90
17128;DHT22;8679;50.842;4.322;2023-03-14T04:28:42;10.30;99.90
17128;DHT22;8679;50.842;4.322;2023-03-14T04:31:13;10.30;99.90
17128;DHT22;8679;50.842;4.322;2023-03-14T04:33:39;10.30;99.90
17128;DHT22;8679;50.842;4.322;2023-03-14T04:36:06;10.40;99.90
17128;DHT22;8679;50.842;4.322;2023-03-14T04:38:32;10.40;99.90
17128;DHT22;8679;50.842;4.322;2023-03-14T04:40:58;10.40;99.90
17128;DHT22;8679;50.842;4.322;2023-03-14T04:43:24;10.40;99.90
17128;DHT22;8679;50.842;4.322;2023-03-14T04:45:53;10.40;99.90
17128;DHT22;8679;50.842;4.322;2023-03-14T04:48:18;10.40;99.90
17128;DHT22;8679;50.842;4.322;2023-03-14T04:50:45;10.50;99.90
17128;DHT22;8679;50.842;4.322;2023-03-14T04:53:11;10.50;99.90
17128;DHT22;8679;50.842;4.322;2023-03-14T04:55:37;10.50;99.90
17128;DHT22;8679;50.842;4.322;2023-03-14T04:58:03;10.50;99.90
17128;DHT22;8679;50.842;4.322;2023-03-14T05:00:28;10.40;99.90
17128;DHT22;8679;50.842;4.322;2023-03-14T05:02:54;10.40;99.90
17128;DHT22;8679;50.842;4.322;2023-03-14T05:05:20;10.40;99.90
17128;DHT22;8679;50.842;4.322;2023-03-14T05:07:46;10.40;99.90
17128;DHT22;8679;50.842;4.322;2023-03-14T05:10:11;10.40;99.90
17128;DHT22;8679;50.842;4.322;2023-03-14T05:12:37;10.40;99.90
17128;DHT22;8679;50.842;4.322;2023-03-14T05:15:03;10.40;99.90
17128;DHT22;8679;50.842;4.322;2023-03-14T05:17:31;10.40;99.90
17128;DHT22;8679;50.842;4.322;2023-03-14T05:19:57;10.50;99.90
17128;DHT22;8679;50.842;4.322;2023-03-14T05:22:23;10.50;99.90
17128;DHT22;8679;50.842;4.322;2023-03-14T05:24:48;10.50;99.90
17128;DHT22;8679;50.842;4.322;2023-03-14T05:27:14;10.40;99.90
17128;DHT22;8679;50.842;4.322;2023-03-14T05:29:39;10.40;99.90
17128;DHT22;8679;50.842;4.322;2023-03-14T05:32:05;10.30;99.90
17128;DHT22;8679;50.842;4.322;2023-03-14T05:34:31;10.30;99.90
17128;DHT22;8679;50.842;4.322;2023-03-14T05:36:56;10.30;99.90
17128;DHT22;8679;50.842;4.322;2023-03-14T05:39:22;10.30;99.90
17128;DHT22;8679;50.842;4.322;2023-03-14T05:41:48;10.30;99.90
17128;DHT22;8679;50.842;4.322;2023-03-14T05:44:14;10.30;99.90
17128;DHT22;8679;50.842;4.322;2023-03-14T05:46:40;10.30;99.90
17128;DHT22;8679;50.842;4.322;2023-03-14T05:49:06;10.40;99.90
17128;DHT22;8679;50.842;4.322;2023-03-14T05:51:31;10.30;99.90
17128;DHT22;8679;50.842;4.322;2023-03-14T05:53:57;10.40;99.90
17128;DHT22;8679;50.842;4.322;2023-03-14T05:56:23;10.40;99.90
17128;DHT22;8679;50.842;4.322;2023-03-14T05:58:48;10.40;99.90
17128;DHT22;8679;50.842;4.322;2023-03-14T06:01:14;10.40;99.90
17128;DHT22;8679;50.842;4.322;2023-03-14T06:03:39;10.40;99.90
17128;DHT22;8679;50.842;4.322;2023-03-14T06:06:05;10.40;99.90
17128;DHT22;8679;50.842;4.322;2023-03-14T06:08:31;10.40;99.90
17128;DHT22;8679;50.842;4.322;2023-03-14T06:10:57;10.50;99.90
17128;DHT22;8679;50.842;4.322;2023-03-14T06:13:23;10.50;99.90
17128;DHT22;8679;50.842;4.322;2023-03-14T06:15:49;10.50;99.90
17128;DHT22;8679;50.842;4.322;2023-03-14T06:18:15;10.50;99.90
17128;DHT22;8679;50.842;4.322;2023-03-14T06:20:40;10.50;99.90
17128;DHT22;8679;50.842;4.322;2023-03-14T06:23:07;10.40;99.90
17128;DHT22;8679;50.842;4.322;2023-03-14T06:25:33;10.40;99.90
17128;DHT22;8679;50.842;4.322;2023-03-14T06:27:59;10.40;99.90
17128;DHT22;8679;50.842;4.322;2023-03-14T06:30:25;10.40;99.90
17128;DHT22;8679;50.842;4.322;2023-03-14T06:32:51;10.40;99.90
17128;DHT22;8679;50.842;4.322;2023-03-14T06:35:16;10.40;99.90
17128;DHT22;8679;50.842;4.322;2023-03-14T06:37:42;10.30;99.90
17128;DHT22;8679;50.842;4.322;2023-03-14T06:40:09;10.30;99.90
17128;DHT22;8679;50.842;4.322;2023-03-14T06:42:35;10.30;99.90
17128;DHT22;8679;50.842;4.322;2023-03-14T06:45:01;10.30;99.90
17128;DHT22;8679;50.842;4.322;2023-03-14T06:47:27;9.90;99.90
17128;DHT22;8679;50.842;4.322;2023-03-14T06:49:52;9.40;99.90
17128;DHT22;8679;50.842;4.322;2023-03-14T06:52:18;9.10;99.90
17128;DHT22;8679;50.842;4.322;2023-03-14T06:54:44;8.90;99.90
17128;DHT22;8679;50.842;4.322;2023-03-14T06:57:09;8.80;99.90
17128;DHT22;8679;50.842;4.322;2023-03-14T06:59:35;8.70;99.90
17128;DHT22;8679;50.842;4.322;2023-03-14T07:02:00;8.60;99.90
17128;DHT22;8679;50.842;4.322;2023-03-14T07:04:26;8.50;99.90
17128;DHT22;8679;50.842;4.322;2023-03-14T07:06:52;8.40;99.90
17128;DHT22;8679;50.842;4.322;2023-03-14T07:09:17;8.20;99.90
17128;DHT22;8679;50.842;4.322;2023-03-14T07:11:43;8.10;99.90
17128;DHT22;8679;50.842;4.322;2023-03-14T07:14:09;8.00;99.90
17128;DHT22;8679;50.842;4.322;2023-03-14T07:16:35;7.90;99.90
17128;DHT22;8679;50.842;4.322;2023-03-14T07:19:01;7.80;99.90
17128;DHT22;8679;50.842;4.322;2023-03-14T07:21:27;7.70;99.90
17128;DHT22;8679;50.842;4.322;2023-03-14T07:23:53;7.70;99.90
17128;DHT22;8679;50.842;4.322;2023-03-14T07:26:18;7.70;99.90
17128;DHT22;8679;50.842;4.322;2023-03-14T07:28:44;7.60;99.90
17128;DHT22;8679;50.842;4.322;2023-03-14T07:31:10;7.60;99.90
17128;DHT22;8679;50.842;4.322;2023-03-14T07:33:35;7.60;99.90
17128;DHT22;8679;50.842;4.322;2023-03-14T07:36:01;7.60;99.90
17128;DHT22;8679;50.842;4.322;2023-03-14T07:38:27;7.60;99.90
17128;DHT22;8679;50.842;4.322;2023-03-14T07:41:04;7.60;99.90
17128;DHT22;8679;50.842;4.322;2023-03-14T07:43:30;7.60;99.90
17128;DHT22;8679;50.842;4.322;2023-03-14T07:45:56;7.60;99.90
17128;DHT22;8679;50.842;4.322;2023-03-14T07:48:22;7.60;99.90
17128;DHT22;8679;50.842;4.322;2023-03-14T07:50:51;7.60;99.90
17128;DHT22;8679;50.842;4.322;2023-03-14T07:53:18;7.60;99.90
17128;DHT22;8679;50.842;4.322;2023-03-14T07:55:44;7.60;99.90
17128;DHT22;8679;50.842;4.322;2023-03-14T07:58:11;7.60;99.90
17128;DHT22;8679;50.842;4.322;2023-03-14T08:00:36;7.60;99.90
17128;DHT22;8679;50.842;4.322;2023-03-14T08:03:02;7.70;99.90
17128;DHT22;8679;50.842;4.322;2023-03-14T08:05:28;7.70;99.90
17128;DHT22;8679;50.842;4.322;2023-03-14T08:07:53;7.70;99.90
17128;DHT22;8679;50.842;4.322;2023-03-14T08:10:19;7.70;99.90
17128;DHT22;8679;50.842;4.322;2023-03-14T08:12:54;7.70;99.90
17128;DHT22;8679;50.842;4.322;2023-03-14T08:15:20;7.70;99.90
17128;DHT22;8679;50.842;4.322;2023-03-14T08:17:46;7.70;99.90
17128;DHT22;8679;50.842;4.322;2023-03-14T08:20:19;7.70;99.90
17128;DHT22;8679;50.842;4.322;2023-03-14T08:22:46;7.70;99.90
17128;DHT22;8679;50.842;4.322;2023-03-14T08:25:12;7.70;99.90
17128;DHT22;8679;50.842;4.322;2023-03-14T08:27:37;7.60;99.90
17128;DHT22;8679;50.842;4.322;2023-03-14T08:30:05;7.60;99.90
17128;DHT22;8679;50.842;4.322;2023-03-14T08:32:32;7.60;99.90
17128;DHT22;8679;50.842;4.322;2023-03-14T08:34:58;7.60;99.90
17128;DHT22;8679;50.842;4.322;2023-03-14T08:37:23;7.50;99.90
17128;DHT22;8679;50.842;4.322;2023-03-14T08:39:50;7.40;99.90
17128;DHT22;8679;50.842;4.322;2023-03-14T08:42:16;7.40;99.90
17128;DHT22;8679;50.842;4.322;2023-03-14T08:44:42;7.20;99.90
17128;DHT22;8679;50.842;4.322;2023-03-14T08:47:07;7.20;99.90
17128;DHT22;8679;50.842;4.322;2023-03-14T08:49:33;7.10;99.90
17128;DHT22;8679;50.842;4.322;2023-03-14T08:51:59;7.20;99.90
17128;DHT22;8679;50.842;4.322;2023-03-14T08:54:26;7.00;99.90
17128;DHT22;8679;50.842;4.322;2023-03-14T08:56:52;7.00;99.90
17128;DHT22;8679;50.842;4.322;2023-03-14T08:59:17;7.00;99.90
17128;DHT22;8679;50.842;4.322;2023-03-14T09:01:43;7.00;99.90
17128;DHT22;8679;50.842;4.322;2023-03-14T09:04:09;7.00;99.90
17128;DHT22;8679;50.842;4.322;2023-03-14T09:06:35;7.00;99.90
17128;DHT22;8679;50.842;4.322;2023-03-14T09:09:01;7.10;99.90
17128;DHT22;8679;50.842;4.322;2023-03-14T09:11:27;7.10;99.90
17128;DHT22;8679;50.842;4.322;2023-03-14T09:13:52;7.00;99.90
17128;DHT22;8679;50.842;4.322;2023-03-14T09:16:18;7.00;99.90
17128;DHT22;8679;50.842;4.322;2023-03-14T09:18:44;7.10;99.90
17128;DHT22;8679;50.842;4.322;2023-03-14T09:21:09;7.10;99.90
17128;DHT22;8679;50.842;4.322;2023-03-14T09:23:36;7.00;99.90
17128;DHT22;8679;50.842;4.322;2023-03-14T09:26:02;7.00;99.90
17128;DHT22;8679;50.842;4.322;2023-03-14T09:28:28;7.00;99.90
17128;DHT22;8679;50.842;4.322;2023-03-14T09:30:53;7.10;99.90
17128;DHT22;8679;50.842;4.322;2023-03-14T09:33:23;7.10;99.90
17128;DHT22;8679;50.842;4.322;2023-03-14T09:35:48;7.00;99.90
17128;DHT22;8679;50.842;4.322;2023-03-14T09:38:14;7.00;99.90
17128;DHT22;8679;50.842;4.322;2023-03-14T09:40:40;7.10;99.90
17128;DHT22;8679;50.842;4.322;2023-03-14T09:43:11;7.10;99.90
17128;DHT22;8679;50.842;4.322;2023-03-14T09:45:39;7.20;99.90
17128;DHT22;8679;50.842;4.322;2023-03-14T09:48:08;7.20;99.90
17128;DHT22;8679;50.842;4.322;2023-03-14T09:50:41;7.20;99.90
17128;DHT22;8679;50.842;4.322;2023-03-14T09:53:17;7.10;99.90
17128;DHT22;8679;50.842;4.322;2023-03-14T09:55:45;7.10;99.90
17128;DHT22;8679;50.842;4.322;2023-03-14T09:58:13;7.20;99.90
17128;DHT22;8679;50.842;4.322;2023-03-14T10:00:41;7.20;99.90
17128;DHT22;8679;50.842;4.322;2023-03-14T10:05:41;7.20;99.90
17128;DHT22;8679;50.842;4.322;2023-03-14T10:08:10;7.30;99.90
17128;DHT22;8679;50.842;4.322;2023-03-14T10:10:36;7.40;99.90
17128;DHT22;8679;50.842;4.322;2023-03-14T10:13:22;7.50;99.90
17128;DHT22;8679;50.842;4.322;2023-03-14T10:16:00;7.50;99.90
17128;DHT22;8679;50.842;4.322;2023-03-14T10:18:29;7.60;99.90
17128;DHT22;8679;50.842;4.322;2023-03-14T10:21:26;7.60;99.90
17128;DHT22;8679;50.842;4.322;2023-03-14T10:23:52;7.60;99.90
17128;DHT22;8679;50.842;4.322;2023-03-14T10:26:24;7.60;99.90
17128;DHT22;8679;50.842;4.322;2023-03-14T10:28:53;7.40;99.90
17128;DHT22;8679;50.842;4.322;2023-03-14T10:31:26;7.30;99.90
17128;DHT22;8679;50.842;4.322;2023-03-14T10:34:00;7.10;99.90
17128;DHT22;8679;50.842;4.322;2023-03-14T10:36:31;7.00;99.90
17128;DHT22;8679;50.842;4.322;2023-03-14T10:39:22;6.90;99.90
17128;DHT22;8679;50.842;4.322;2023-03-14T10:41:53;6.90;99.90
17128;DHT22;8679;50.842;4.322;2023-03-14T10:44:24;6.90;99.90
17128;DHT22;8679;50.842;4.322;2023-03-14T10:47:02;6.90;99.90
17128;DHT22;8679;50.842;4.322;2023-03-14T10:49:34;6.90;99.90
17128;DHT22;8679;50.842;4.322;2023-03-14T10:52:24;6.90;99.90
17128;DHT22;8679;50.842;4.322;2023-03-14T10:55:01;6.80;99.90
17128;DHT22;8679;50.842;4.322;2023-03-14T10:57:27;6.80;99.90
17128;DHT22;8679;50.842;4.322;2023-03-14T10:59:55;6.70;99.90
17128;DHT22;8679;50.842;4.322;2023-03-14T11:03:26;6.70;99.90
17128;DHT22;8679;50.842;4.322;2023-03-14T11:05:58;6.70;99.90
17128;DHT22;8679;50.842;4.322;2023-03-14T11:11:20;6.60;99.90
17128;DHT22;8679;50.842;4.322;2023-03-14T11:14:17;6.60;99.90
17128;DHT22;8679;50.842;4.322;2023-03-14T11:19:27;6.50;99.90
17128;DHT22;8679;50.842;4.322;2023-03-14T11:22:08;6.50;99.90
17128;DHT22;8679;50.842;4.322;2023-03-14T11:27:25;6.30;99.90
17128;DHT22;8679;50.842;4.322;2023-03-14T11:30:16;6.30;99.90
17128;DHT22;8679;50.842;4.322;2023-03-14T11:33:00;6.20;99.90
17128;DHT22;8679;50.842;4.322;2023-03-14T11:35:37;6.10;99.90
17128;DHT22;8679;50.842;4.322;2023-03-14T11:40:57;5.90;99.90
17128;DHT22;8679;50.842;4.322;2023-03-14T11:43:26;5.80;99.90
17128;DHT22;8679;50.842;4.322;2023-03-14T11:45:56;5.80;99.90
17128;DHT22;8679;50.842;4.322;2023-03-14T11:48:36;5.80;99.90
17128;DHT22;8679;50.842;4.322;2023-03-14T11:51:09;5.80;99.90
17128;DHT22;8679;50.842;4.322;2023-03-14T11:53:53;5.70;99.90
17128;DHT22;8679;50.842;4.322;2023-03-14T11:59:21;5.60;99.90
17128;DHT22;8679;50.842;4.322;2023-03-14T12:02:21;5.60;99.90
17128;DHT22;8679;50.842;4.322;2023-03-14T12:10:22;5.70;99.90
17128;DHT22;8679;50.842;4.322;2023-03-14T12:12:48;5.70;99.90
17128;DHT22;8679;50.842;4.322;2023-03-14T12:15:21;5.80;99.90
17128;DHT22;8679;50.842;4.322;2023-03-14T12:17:54;5.70;99.90
17128;DHT22;8679;50.842;4.322;2023-03-14T12:20:23;5.70;99.90
17128;DHT22;8679;50.842;4.322;2023-03-14T12:25:19;5.90;99.90
17128;DHT22;8679;50.842;4.322;2023-03-14T12:30:37;5.90;99.90
17128;DHT22;8679;50.842;4.322;2023-03-14T12:35:42;5.90;99.90
17128;DHT22;8679;50.842;4.322;2023-03-14T12:41:14;5.80;99.90
17128;DHT22;8679;50.842;4.322;2023-03-14T12:43:41;5.80;99.90
17128;DHT22;8679;50.842;4.322;2023-03-14T12:51:16;5.70;99.90
17128;DHT22;8679;50.842;4.322;2023-03-14T12:56:24;5.60;99.90
17128;DHT22;8679;50.842;4.322;2023-03-14T12:59:02;5.60;99.90
17128;DHT22;8679;50.842;4.322;2023-03-14T13:01:33;5.70;99.90
17128;DHT22;8679;50.842;4.322;2023-03-14T13:04:09;5.80;99.90
17128;DHT22;8679;50.842;4.322;2023-03-14T13:06:50;5.90;99.90
17128;DHT22;8679;50.842;4.322;2023-03-14T13:11:55;6.00;99.90
17128;DHT22;8679;50.842;4.322;2023-03-14T13:14:22;6.10;99.90
17128;DHT22;8679;50.842;4.322;2023-03-14T13:16:48;6.00;99.90
17128;DHT22;8679;50.842;4.322;2023-03-14T13:19:40;6.00;99.90
17128;DHT22;8679;50.842;4.322;2023-03-14T13:22:24;6.00;99.90
17128;DHT22;8679;50.842;4.322;2023-03-14T13:25:01;6.00;99.90
17128;DHT22;8679;50.842;4.322;2023-03-14T13:27:30;6.00;99.90
17128;DHT22;8679;50.842;4.322;2023-03-14T13:29:57;6.00;99.90
17128;DHT22;8679;50.842;4.322;2023-03-14T13:32:27;5.90;99.90
17128;DHT22;8679;50.842;4.322;2023-03-14T13:34:59;5.90;99.90
17128;DHT22;8679;50.842;4.322;2023-03-14T13:37:26;5.90;99.90
17128;DHT22;8679;50.842;4.322;2023-03-14T13:39:53;6.00;99.90
17128;DHT22;8679;50.842;4.322;2023-03-14T13:42:24;6.00;99.90
17128;DHT22;8679;50.842;4.322;2023-03-14T13:44:52;6.10;99.90
17128;DHT22;8679;50.842;4.322;2023-03-14T13:47:20;6.10;99.90
17128;DHT22;8679;50.842;4.322;2023-03-14T13:49:47;6.10;99.90
17128;DHT22;8679;50.842;4.322;2023-03-14T13:52:28;6.20;99.90
17128;DHT22;8679;50.842;4.322;2023-03-14T13:54:56;6.20;99.90
17128;DHT22;8679;50.842;4.322;2023-03-14T13:57:22;6.30;99.90
17128;DHT22;8679;50.842;4.322;2023-03-14T14:00:06;6.40;99.90
17128;DHT22;8679;50.842;4.322;2023-03-14T14:02:36;6.50;99.90
17128;DHT22;8679;50.842;4.322;2023-03-14T14:05:03;6.60;99.90
17128;DHT22;8679;50.842;4.322;2023-03-14T14:07:29;6.70;99.90
17128;DHT22;8679;50.842;4.322;2023-03-14T14:09:55;6.90;99.90
17128;DHT22;8679;50.842;4.322;2023-03-14T14:12:31;7.10;99.90
17128;DHT22;8679;50.842;4.322;2023-03-14T14:17:53;7.40;99.90
17128;DHT22;8679;50.842;4.322;2023-03-14T14:22:46;7.60;99.90
17128;DHT22;8679;50.842;4.322;2023-03-14T14:25:15;7.60;76.20
17128;DHT22;8679;50.842;4.322;2023-03-14T14:27:43;7.60;83.10
17128;DHT22;8679;50.842;4.322;2023-03-14T14:32:45;7.60;1.00
17128;DHT22;8679;50.842;4.322;2023-03-14T14:37:48;7.40;1.00
17128;DHT22;8679;50.842;4.322;2023-03-14T14:40:20;7.30;1.00
17128;DHT22;8679;50.842;4.322;2023-03-14T14:42:47;7.30;1.00
17128;DHT22;8679;50.842;4.322;2023-03-14T14:45:17;7.20;1.00
17128;DHT22;8679;50.842;4.322;2023-03-14T14:50:29;7.00;1.00
17128;DHT22;8679;50.842;4.322;2023-03-14T14:53:00;6.80;1.00
17128;DHT22;8679;50.842;4.322;2023-03-14T14:55:32;6.70;1.00
17128;DHT22;8679;50.842;4.322;2023-03-14T14:58:57;6.40;99.90
17128;DHT22;8679;50.842;4.322;2023-03-14T15:01:02;6.10;1.00
17128;DHT22;8679;50.842;4.322;2023-03-14T15:03:31;5.90;99.90
17128;DHT22;8679;50.842;4.322;2023-03-14T15:05:57;5.90;99.90
17128;DHT22;8679;50.842;4.322;2023-03-14T15:08:25;5.90;99.90
17128;DHT22;8679;50.842;4.322;2023-03-14T15:10:51;5.90;99.90
17128;DHT22;8679;50.842;4.322;2023-03-14T15:13:17;5.90;99.90
17128;DHT22;8679;50.842;4.322;2023-03-14T15:15:43;6.00;99.90
17128;DHT22;8679;50.842;4.322;2023-03-14T15:18:16;6.10;18.60
17128;DHT22;8679;50.842;4.322;2023-03-14T15:20:44;6.20;1.00
17128;DHT22;8679;50.842;4.322;2023-03-14T15:23:14;6.20;1.00
17128;DHT22;8679;50.842;4.322;2023-03-14T15:25:40;6.20;1.00
17128;DHT22;8679;50.842;4.322;2023-03-14T15:28:19;6.30;1.00
17128;DHT22;8679;50.842;4.322;2023-03-14T15:30:50;6.30;1.00
17128;DHT22;8679;50.842;4.322;2023-03-14T15:33:16;6.40;99.90
17128;DHT22;8679;50.842;4.322;2023-03-14T15:35:42;6.40;99.90
17128;DHT22;8679;50.842;4.322;2023-03-14T15:38:14;6.40;99.90
17128;DHT22;8679;50.842;4.322;2023-03-14T15:40:40;6.40;99.90
17128;DHT22;8679;50.842;4.322;2023-03-14T15:43:07;6.30;99.90
17128;DHT22;8679;50.842;4.322;2023-03-14T15:45:33;6.30;99.90
17128;DHT22;8679;50.842;4.322;2023-03-14T15:47:58;6.30;99.90
17128;DHT22;8679;50.842;4.322;2023-03-14T15:50:24;6.20;99.90
17128;DHT22;8679;50.842;4.322;2023-03-14T15:52:51;6.20;99.90
17128;DHT22;8679;50.842;4.322;2023-03-14T15:55:17;6.20;99.90
17128;DHT22;8679;50.842;4.322;2023-03-14T15:57:43;6.20;99.90
17128;DHT22;8679;50.842;4.322;2023-03-14T16:00:15;6.20;99.90
17128;DHT22;8679;50.842;4.322;2023-03-14T16:02:43;6.20;99.90
17128;DHT22;8679;50.842;4.322;2023-03-14T16:05:10;6.10;99.90
17128;DHT22;8679;50.842;4.322;2023-03-14T16:07:37;6.10;99.90
17128;DHT22;8679;50.842;4.322;2023-03-14T16:10:03;6.10;99.90
17128;DHT22;8679;50.842;4.322;2023-03-14T16:12:30;6.10;99.90
17128;DHT22;8679;50.842;4.322;2023-03-14T16:14:56;6.10;99.90
17128;DHT22;8679;50.842;4.322;2023-03-14T16:17:22;6.10;99.90
17128;DHT22;8679;50.842;4.322;2023-03-14T16:19:47;6.10;99.90
17128;DHT22;8679;50.842;4.322;2023-03-14T16:22:13;6.10;99.90
17128;DHT22;8679;50.842;4.322;2023-03-14T16:24:39;6.10;99.90
17128;DHT22;8679;50.842;4.322;2023-03-14T16:27:04;6.10;99.90
17128;DHT22;8679;50.842;4.322;2023-03-14T16:29:30;6.10;99.90
17128;DHT22;8679;50.842;4.322;2023-03-14T16:31:56;6.10;99.90
17128;DHT22;8679;50.842;4.322;2023-03-14T16:34:21;6.20;99.90
17128;DHT22;8679;50.842;4.322;2023-03-14T16:36:47;6.10;99.90
17128;DHT22;8679;50.842;4.322;2023-03-14T16:39:16;6.20;1.00
17128;DHT22;8679;50.842;4.322;2023-03-14T16:41:42;6.20;99.90
17128;DHT22;8679;50.842;4.322;2023-03-14T16:44:07;6.30;99.90
17128;DHT22;8679;50.842;4.322;2023-03-14T16:46:33;6.30;99.90
17128;DHT22;8679;50.842;4.322;2023-03-14T16:49:01;6.30;1.00
17128;DHT22;8679;50.842;4.322;2023-03-14T16:51:27;6.40;1.00
17128;DHT22;8679;50.842;4.322;2023-03-14T16:53:53;6.40;1.00
17128;DHT22;8679;50.842;4.322;2023-03-14T16:56:19;6.40;1.00
17128;DHT22;8679;50.842;4.322;2023-03-14T16:58:45;6.50;1.00
17128;DHT22;8679;50.842;4.322;2023-03-14T17:01:14;6.50;1.00
17128;DHT22;8679;50.842;4.322;2023-03-14T17:03:44;6.50;1.00
17128;DHT22;8679;50.842;4.322;2023-03-14T17:06:16;6.40;1.00